sensor_id;sensor_type;location;lat;lon;timestamp;P1;durP1;ratioP1;P2;durP2;ratioP2
22603;SDS011;11469;49.024;8.246;2024-02-28T00:01:37;30.85;;;17.40;;
22603;SDS011;11469;49.024;8.246;2024-02-28T00:04:02;28.83;;;16.27;;
22603;SDS011;11469;49.024;8.246;2024-02-28T00:06:28;28.90;;;17.88;;
22603;SDS011;11469;49.024;8.246;2024-02-28T00:08:54;30.15;;;17.58;;
22603;SDS011;11469;49.024;8.246;2024-02-28T00:11:20;30.23;;;17.08;;
22603;SDS011;11469;49.024;8.246;2024-02-28T00:13:45;30.10;;;17.60;;
22603;SDS011;11469;49.024;8.246;2024-02-28T00:16:11;29.50;;;17.27;;
22603;SDS011;11469;49.024;8.246;2024-02-28T00:18:36;26.63;;;16.55;;
22603;SDS011;11469;49.024;8.246;2024-02-28T00:21:02;31.88;;;17.15;;
22603;SDS011;11469;49.024;8.246;2024-02-28T00:23:28;39.15;;;18.52;;
22603;SDS011;11469;49.024;8.246;2024-02-28T00:25:54;29.05;;;17.98;;
22603;SDS011;11469;49.024;8.246;2024-02-28T00:28:20;29.98;;;16.90;;
22603;SDS011;11469;49.024;8.246;2024-02-28T00:30:46;33.00;;;18.23;;
22603;SDS011;11469;49.024;8.246;2024-02-28T00:33:11;31.40;;;19.10;;
22603;SDS011;11469;49.024;8.246;2024-02-28T00:35:36;33.65;;;18.58;;
22603;SDS011;11469;49.024;8.246;2024-02-28T00:38:02;35.72;;;20.15;;
22603;SDS011;11469;49.024;8.246;2024-02-28T00:40:28;33.17;;;18.80;;
22603;SDS011;11469;49.024;8.246;2024-02-28T00:42:53;33.25;;;19.05;;
22603;SDS011;11469;49.024;8.246;2024-02-28T00:45:20;32.35;;;18.92;;
22603;SDS011;11469;49.024;8.246;2024-02-28T00:47:45;33.08;;;18.73;;
22603;SDS011;11469;49.024;8.246;2024-02-28T00:50:10;35.88;;;19.70;;
22603;SDS011;11469;49.024;8.246;2024-02-28T00:52:36;36.15;;;21.00;;
22603;SDS011;11469;49.024;8.246;2024-02-28T00:55:02;32.22;;;19.05;;
22603;SDS011;11469;49.024;8.246;2024-02-28T00:57:29;34.47;;;20.42;;
22603;SDS011;11469;49.024;8.246;2024-02-28T00:59:55;36.22;;;21.13;;
22603;SDS011;11469;49.024;8.246;2024-02-28T01:02:21;37.60;;;20.42;;
22603;SDS011;11469;49.024;8.246;2024-02-28T01:04:46;32.40;;;19.13;;
22603;SDS011;11469;49.024;8.246;2024-02-28T01:07:12;34.78;;;19.83;;
22603;SDS011;11469;49.024;8.246;2024-02-28T01:09:37;38.65;;;21.55;;
22603;SDS011;11469;49.024;8.246;2024-02-28T01:12:03;35.75;;;20.23;;
22603;SDS011;11469;49.024;8.246;2024-02-28T01:14:29;36.78;;;21.60;;
22603;SDS011;11469;49.024;8.246;2024-02-28T01:16:54;35.03;;;20.75;;
22603;SDS011;11469;49.024;8.246;2024-02-28T01:19:20;36.20;;;20.60;;
22603;SDS011;11469;49.024;8.246;2024-02-28T01:21:45;40.60;;;22.95;;
22603;SDS011;11469;49.024;8.246;2024-02-28T01:24:11;36.63;;;22.02;;
22603;SDS011;11469;49.024;8.246;2024-02-28T01:26:36;39.92;;;23.73;;
22603;SDS011;11469;49.024;8.246;2024-02-28T01:29:01;43.22;;;22.88;;
22603;SDS011;11469;49.024;8.246;2024-02-28T01:31:27;37.58;;;22.98;;
22603;SDS011;11469;49.024;8.246;2024-02-28T01:33:53;40.28;;;23.30;;
22603;SDS011;11469;49.024;8.246;2024-02-28T01:36:19;39.40;;;23.92;;
22603;SDS011;11469;49.024;8.246;2024-02-28T01:38:44;37.50;;;22.92;;
22603;SDS011;11469;49.024;8.246;2024-02-28T01:41:10;39.65;;;22.65;;
22603;SDS011;11469;49.024;8.246;2024-02-28T01:43:35;41.08;;;22.45;;
22603;SDS011;11469;49.024;8.246;2024-02-28T01:46:01;40.05;;;22.65;;
22603;SDS011;11469;49.024;8.246;2024-02-28T01:48:28;43.00;;;23.75;;
22603;SDS011;11469;49.024;8.246;2024-02-28T01:50:55;40.10;;;23.52;;
22603;SDS011;11469;49.024;8.246;2024-02-28T01:53:20;41.53;;;24.10;;
22603;SDS011;11469;49.024;8.246;2024-02-28T01:55:46;43.80;;;24.83;;
22603;SDS011;11469;49.024;8.246;2024-02-28T01:58:12;43.40;;;26.40;;
22603;SDS011;11469;49.024;8.246;2024-02-28T02:00:38;48.55;;;26.20;;
22603;SDS011;11469;49.024;8.246;2024-02-28T02:03:07;48.58;;;27.00;;
22603;SDS011;11469;49.024;8.246;2024-02-28T02:05:33;45.72;;;27.40;;
22603;SDS011;11469;49.024;8.246;2024-02-28T02:07:58;47.97;;;26.90;;
22603;SDS011;11469;49.024;8.246;2024-02-28T02:10:25;50.30;;;27.55;;
22603;SDS011;11469;49.024;8.246;2024-02-28T02:12:50;47.65;;;26.33;;
22603;SDS011;11469;49.024;8.246;2024-02-28T02:15:16;43.85;;;26.42;;
22603;SDS011;11469;49.024;8.246;2024-02-28T02:17:41;43.88;;;26.17;;
22603;SDS011;11469;49.024;8.246;2024-02-28T02:20:08;46.63;;;26.55;;
22603;SDS011;11469;49.024;8.246;2024-02-28T02:22:39;45.08;;;25.65;;
22603;SDS011;11469;49.024;8.246;2024-02-28T02:25:04;46.38;;;25.27;;
22603;SDS011;11469;49.024;8.246;2024-02-28T02:27:30;45.90;;;25.45;;
22603;SDS011;11469;49.024;8.246;2024-02-28T02:29:56;37.63;;;23.38;;
22603;SDS011;11469;49.024;8.246;2024-02-28T02:32:21;39.95;;;24.85;;
22603;SDS011;11469;49.024;8.246;2024-02-28T02:34:46;43.38;;;24.33;;
22603;SDS011;11469;49.024;8.246;2024-02-28T02:37:12;42.58;;;24.13;;
22603;SDS011;11469;49.024;8.246;2024-02-28T02:39:37;45.00;;;24.25;;
22603;SDS011;11469;49.024;8.246;2024-02-28T02:42:02;42.88;;;23.77;;
22603;SDS011;11469;49.024;8.246;2024-02-28T02:44:28;42.10;;;23.70;;
22603;SDS011;11469;49.024;8.246;2024-02-28T02:46:53;36.13;;;22.27;;
22603;SDS011;11469;49.024;8.246;2024-02-28T02:49:18;40.72;;;23.67;;
22603;SDS011;11469;49.024;8.246;2024-02-28T02:51:44;35.75;;;22.67;;
22603;SDS011;11469;49.024;8.246;2024-02-28T02:54:10;41.05;;;22.77;;
22603;SDS011;11469;49.024;8.246;2024-02-28T02:56:36;38.05;;;22.30;;
22603;SDS011;11469;49.024;8.246;2024-02-28T02:59:01;40.50;;;21.08;;
22603;SDS011;11469;49.024;8.246;2024-02-28T03:01:27;44.35;;;23.33;;
22603;SDS011;11469;49.024;8.246;2024-02-28T03:03:52;37.65;;;22.50;;
22603;SDS011;11469;49.024;8.246;2024-02-28T03:06:18;40.15;;;24.08;;
22603;SDS011;11469;49.024;8.246;2024-02-28T03:08:43;41.50;;;22.90;;
22603;SDS011;11469;49.024;8.246;2024-02-28T03:11:08;39.67;;;21.40;;
22603;SDS011;11469;49.024;8.246;2024-02-28T03:13:34;36.92;;;21.85;;
22603;SDS011;11469;49.024;8.246;2024-02-28T03:16:00;48.40;;;24.05;;
22603;SDS011;11469;49.024;8.246;2024-02-28T03:18:25;46.50;;;23.95;;
22603;SDS011;11469;49.024;8.246;2024-02-28T03:20:50;43.90;;;24.75;;
22603;SDS011;11469;49.024;8.246;2024-02-28T03:23:16;50.88;;;29.83;;
22603;SDS011;11469;49.024;8.246;2024-02-28T03:25:41;48.40;;;28.23;;
22603;SDS011;11469;49.024;8.246;2024-02-28T03:28:07;44.55;;;26.40;;
22603;SDS011;11469;49.024;8.246;2024-02-28T03:30:32;55.90;;;31.25;;
22603;SDS011;11469;49.024;8.246;2024-02-28T03:32:58;61.05;;;31.95;;
22603;SDS011;11469;49.024;8.246;2024-02-28T03:35:23;62.13;;;34.10;;
22603;SDS011;11469;49.024;8.246;2024-02-28T03:37:48;60.95;;;32.92;;
22603;SDS011;11469;49.024;8.246;2024-02-28T03:40:14;58.80;;;32.67;;
22603;SDS011;11469;49.024;8.246;2024-02-28T03:42:40;60.38;;;32.17;;
22603;SDS011;11469;49.024;8.246;2024-02-28T03:45:05;51.78;;;29.65;;
22603;SDS011;11469;49.024;8.246;2024-02-28T03:47:31;43.40;;;25.50;;
22603;SDS011;11469;49.024;8.246;2024-02-28T03:49:56;48.92;;;26.85;;
22603;SDS011;11469;49.024;8.246;2024-02-28T03:52:22;46.28;;;26.20;;
22603;SDS011;11469;49.024;8.246;2024-02-28T03:54:48;50.75;;;27.23;;
22603;SDS011;11469;49.024;8.246;2024-02-28T03:57:14;46.95;;;25.13;;
22603;SDS011;11469;49.024;8.246;2024-02-28T03:59:40;46.05;;;25.88;;
22603;SDS011;11469;49.024;8.246;2024-02-28T04:02:09;42.45;;;24.15;;
22603;SDS011;11469;49.024;8.246;2024-02-28T04:04:34;44.10;;;23.98;;
22603;SDS011;11469;49.024;8.246;2024-02-28T04:07:00;45.80;;;24.02;;
22603;SDS011;11469;49.024;8.246;2024-02-28T04:09:25;42.72;;;23.40;;
22603;SDS011;11469;49.024;8.246;2024-02-28T04:11:50;44.70;;;25.38;;
22603;SDS011;11469;49.024;8.246;2024-02-28T04:14:16;43.38;;;24.20;;
22603;SDS011;11469;49.024;8.246;2024-02-28T04:16:42;43.35;;;23.88;;
22603;SDS011;11469;49.024;8.246;2024-02-28T04:19:09;47.95;;;24.63;;
22603;SDS011;11469;49.024;8.246;2024-02-28T04:21:35;44.22;;;24.55;;
22603;SDS011;11469;49.024;8.246;2024-02-28T04:24:00;44.53;;;24.77;;
22603;SDS011;11469;49.024;8.246;2024-02-28T04:26:26;42.47;;;23.50;;
22603;SDS011;11469;49.024;8.246;2024-02-28T04:28:51;46.70;;;25.60;;
22603;SDS011;11469;49.024;8.246;2024-02-28T04:31:16;42.63;;;24.90;;
22603;SDS011;11469;49.024;8.246;2024-02-28T04:33:42;49.45;;;26.70;;
22603;SDS011;11469;49.024;8.246;2024-02-28T04:36:07;47.00;;;25.45;;
22603;SDS011;11469;49.024;8.246;2024-02-28T04:38:32;47.63;;;25.40;;
22603;SDS011;11469;49.024;8.246;2024-02-28T04:40:58;46.53;;;25.08;;
22603;SDS011;11469;49.024;8.246;2024-02-28T04:43:23;48.90;;;26.08;;
22603;SDS011;11469;49.024;8.246;2024-02-28T04:45:48;47.67;;;25.20;;
22603;SDS011;11469;49.024;8.246;2024-02-28T04:48:14;44.97;;;25.15;;
22603;SDS011;11469;49.024;8.246;2024-02-28T04:50:39;49.53;;;25.77;;
22603;SDS011;11469;49.024;8.246;2024-02-28T04:53:04;51.90;;;27.88;;
22603;SDS011;11469;49.024;8.246;2024-02-28T04:55:30;51.45;;;26.25;;
22603;SDS011;11469;49.024;8.246;2024-02-28T04:57:55;49.58;;;25.38;;
22603;SDS011;11469;49.024;8.246;2024-02-28T05:00:21;46.80;;;24.67;;
22603;SDS011;11469;49.024;8.246;2024-02-28T05:02:46;49.65;;;25.70;;
22603;SDS011;11469;49.024;8.246;2024-02-28T05:05:11;44.03;;;23.98;;
22603;SDS011;11469;49.024;8.246;2024-02-28T05:07:37;46.80;;;25.35;;
22603;SDS011;11469;49.024;8.246;2024-02-28T05:10:02;48.63;;;26.15;;
22603;SDS011;11469;49.024;8.246;2024-02-28T05:12:28;46.40;;;25.88;;
22603;SDS011;11469;49.024;8.246;2024-02-28T05:14:53;53.45;;;27.65;;
22603;SDS011;11469;49.024;8.246;2024-02-28T05:17:20;59.13;;;26.15;;
22603;SDS011;11469;49.024;8.246;2024-02-28T05:19:45;56.20;;;27.98;;
22603;SDS011;11469;49.024;8.246;2024-02-28T05:22:11;57.20;;;28.10;;
22603;SDS011;11469;49.024;8.246;2024-02-28T05:24:36;52.40;;;27.70;;
22603;SDS011;11469;49.024;8.246;2024-02-28T05:27:02;50.92;;;26.73;;
22603;SDS011;11469;49.024;8.246;2024-02-28T05:29:27;62.15;;;27.45;;
22603;SDS011;11469;49.024;8.246;2024-02-28T05:31:53;52.85;;;28.23;;
22603;SDS011;11469;49.024;8.246;2024-02-28T05:34:18;58.28;;;28.52;;
22603;SDS011;11469;49.024;8.246;2024-02-28T05:36:43;60.70;;;29.48;;
22603;SDS011;11469;49.024;8.246;2024-02-28T05:39:09;64.03;;;28.85;;
22603;SDS011;11469;49.024;8.246;2024-02-28T05:41:34;54.78;;;28.08;;
22603;SDS011;11469;49.024;8.246;2024-02-28T05:43:59;52.58;;;27.35;;
22603;SDS011;11469;49.024;8.246;2024-02-28T05:46:25;62.35;;;29.98;;
22603;SDS011;11469;49.024;8.246;2024-02-28T05:48:50;61.83;;;29.98;;
22603;SDS011;11469;49.024;8.246;2024-02-28T05:51:16;62.38;;;27.80;;
22603;SDS011;11469;49.024;8.246;2024-02-28T05:53:42;64.18;;;29.92;;
22603;SDS011;11469;49.024;8.246;2024-02-28T05:56:08;62.40;;;31.10;;
22603;SDS011;11469;49.024;8.246;2024-02-28T05:58:42;62.15;;;29.05;;
22603;SDS011;11469;49.024;8.246;2024-02-28T06:01:09;62.85;;;30.70;;
22603;SDS011;11469;49.024;8.246;2024-02-28T06:03:38;61.45;;;28.63;;
22603;SDS011;11469;49.024;8.246;2024-02-28T06:06:04;68.05;;;30.75;;
22603;SDS011;11469;49.024;8.246;2024-02-28T06:08:33;53.25;;;27.30;;
22603;SDS011;11469;49.024;8.246;2024-02-28T06:10:59;60.13;;;29.75;;
22603;SDS011;11469;49.024;8.246;2024-02-28T06:13:24;62.17;;;29.80;;
22603;SDS011;11469;49.024;8.246;2024-02-28T06:15:50;58.97;;;29.50;;
22603;SDS011;11469;49.024;8.246;2024-02-28T06:18:15;58.53;;;28.75;;
22603;SDS011;11469;49.024;8.246;2024-02-28T06:20:40;61.65;;;29.75;;
22603;SDS011;11469;49.024;8.246;2024-02-28T06:23:07;60.88;;;31.08;;
22603;SDS011;11469;49.024;8.246;2024-02-28T06:25:32;65.60;;;31.50;;
22603;SDS011;11469;49.024;8.246;2024-02-28T06:27:59;67.43;;;32.83;;
22603;SDS011;11469;49.024;8.246;2024-02-28T06:30:25;76.40;;;34.65;;
22603;SDS011;11469;49.024;8.246;2024-02-28T06:32:50;74.75;;;36.15;;
22603;SDS011;11469;49.024;8.246;2024-02-28T06:35:16;84.05;;;38.90;;
22603;SDS011;11469;49.024;8.246;2024-02-28T06:37:42;88.95;;;40.35;;
22603;SDS011;11469;49.024;8.246;2024-02-28T06:40:13;90.47;;;40.88;;
22603;SDS011;11469;49.024;8.246;2024-02-28T06:42:38;96.10;;;42.42;;
22603;SDS011;11469;49.024;8.246;2024-02-28T06:45:04;94.53;;;41.58;;
22603;SDS011;11469;49.024;8.246;2024-02-28T06:47:30;96.07;;;42.67;;
22603;SDS011;11469;49.024;8.246;2024-02-28T06:49:57;94.07;;;41.53;;
22603;SDS011;11469;49.024;8.246;2024-02-28T06:52:22;93.05;;;42.00;;
22603;SDS011;11469;49.024;8.246;2024-02-28T06:54:48;89.55;;;40.00;;
22603;SDS011;11469;49.024;8.246;2024-02-28T06:57:13;90.80;;;41.08;;
22603;SDS011;11469;49.024;8.246;2024-02-28T06:59:38;85.57;;;40.97;;
22603;SDS011;11469;49.024;8.246;2024-02-28T07:02:04;83.47;;;40.30;;
22603;SDS011;11469;49.024;8.246;2024-02-28T07:04:30;85.15;;;40.03;;
22603;SDS011;11469;49.024;8.246;2024-02-28T07:06:55;90.88;;;40.97;;
22603;SDS011;11469;49.024;8.246;2024-02-28T07:09:20;90.15;;;41.30;;
22603;SDS011;11469;49.024;8.246;2024-02-28T07:11:46;85.95;;;40.15;;
22603;SDS011;11469;49.024;8.246;2024-02-28T07:14:11;87.20;;;40.08;;
22603;SDS011;11469;49.024;8.246;2024-02-28T07:16:37;90.43;;;41.97;;
22603;SDS011;11469;49.024;8.246;2024-02-28T07:19:02;87.32;;;41.58;;
22603;SDS011;11469;49.024;8.246;2024-02-28T07:21:28;82.55;;;40.05;;
22603;SDS011;11469;49.024;8.246;2024-02-28T07:23:54;83.60;;;40.20;;
22603;SDS011;11469;49.024;8.246;2024-02-28T07:26:20;87.75;;;40.10;;
22603;SDS011;11469;49.024;8.246;2024-02-28T07:28:45;82.03;;;38.97;;
22603;SDS011;11469;49.024;8.246;2024-02-28T07:31:17;87.35;;;43.03;;
22603;SDS011;11469;49.024;8.246;2024-02-28T07:33:42;83.68;;;39.55;;
22603;SDS011;11469;49.024;8.246;2024-02-28T07:36:08;83.22;;;40.42;;
22603;SDS011;11469;49.024;8.246;2024-02-28T07:38:34;78.05;;;37.17;;
22603;SDS011;11469;49.024;8.246;2024-02-28T07:40:59;79.82;;;39.40;;
22603;SDS011;11469;49.024;8.246;2024-02-28T07:43:24;81.28;;;39.80;;
22603;SDS011;11469;49.024;8.246;2024-02-28T07:45:50;78.03;;;39.28;;
22603;SDS011;11469;49.024;8.246;2024-02-28T07:48:15;79.43;;;39.88;;
22603;SDS011;11469;49.024;8.246;2024-02-28T07:50:44;82.07;;;40.15;;
22603;SDS011;11469;49.024;8.246;2024-02-28T07:53:09;76.93;;;39.25;;
22603;SDS011;11469;49.024;8.246;2024-02-28T07:55:35;84.55;;;40.05;;
22603;SDS011;11469;49.024;8.246;2024-02-28T07:58:00;81.40;;;39.33;;
22603;SDS011;11469;49.024;8.246;2024-02-28T08:00:26;80.32;;;40.33;;
22603;SDS011;11469;49.024;8.246;2024-02-28T08:02:51;81.00;;;39.45;;
22603;SDS011;11469;49.024;8.246;2024-02-28T08:05:16;85.85;;;40.33;;
22603;SDS011;11469;49.024;8.246;2024-02-28T08:07:43;75.90;;;39.28;;
22603;SDS011;11469;49.024;8.246;2024-02-28T08:10:08;105.63;;;51.25;;
22603;SDS011;11469;49.024;8.246;2024-02-28T08:12:35;81.35;;;40.60;;
22603;SDS011;11469;49.024;8.246;2024-02-28T08:15:01;80.68;;;38.72;;
22603;SDS011;11469;49.024;8.246;2024-02-28T08:17:27;78.97;;;39.60;;
22603;SDS011;11469;49.024;8.246;2024-02-28T08:19:53;88.18;;;41.25;;
22603;SDS011;11469;49.024;8.246;2024-02-28T08:22:19;89.20;;;44.13;;
22603;SDS011;11469;49.024;8.246;2024-02-28T08:24:45;82.78;;;42.33;;
22603;SDS011;11469;49.024;8.246;2024-02-28T08:27:10;94.32;;;43.45;;
22603;SDS011;11469;49.024;8.246;2024-02-28T08:29:35;89.43;;;43.30;;
22603;SDS011;11469;49.024;8.246;2024-02-28T08:32:03;88.20;;;43.22;;
22603;SDS011;11469;49.024;8.246;2024-02-28T08:34:28;82.43;;;41.08;;
22603;SDS011;11469;49.024;8.246;2024-02-28T08:36:54;83.22;;;39.88;;
22603;SDS011;11469;49.024;8.246;2024-02-28T08:39:19;82.22;;;40.30;;
22603;SDS011;11469;49.024;8.246;2024-02-28T08:41:44;79.75;;;39.28;;
22603;SDS011;11469;49.024;8.246;2024-02-28T08:44:10;74.70;;;37.20;;
22603;SDS011;11469;49.024;8.246;2024-02-28T08:46:36;79.13;;;37.63;;
22603;SDS011;11469;49.024;8.246;2024-02-28T08:49:01;70.90;;;36.50;;
22603;SDS011;11469;49.024;8.246;2024-02-28T08:51:26;76.88;;;38.85;;
22603;SDS011;11469;49.024;8.246;2024-02-28T08:53:52;78.55;;;38.08;;
22603;SDS011;11469;49.024;8.246;2024-02-28T08:56:18;78.57;;;37.72;;
22603;SDS011;11469;49.024;8.246;2024-02-28T08:58:44;74.72;;;38.72;;
22603;SDS011;11469;49.024;8.246;2024-02-28T09:01:13;76.10;;;36.95;;
22603;SDS011;11469;49.024;8.246;2024-02-28T09:03:39;82.95;;;41.85;;
22603;SDS011;11469;49.024;8.246;2024-02-28T09:06:05;71.68;;;37.45;;
22603;SDS011;11469;49.024;8.246;2024-02-28T09:08:30;78.32;;;40.03;;
22603;SDS011;11469;49.024;8.246;2024-02-28T09:10:56;73.30;;;36.80;;
22603;SDS011;11469;49.024;8.246;2024-02-28T09:13:21;74.03;;;39.08;;
22603;SDS011;11469;49.024;8.246;2024-02-28T09:15:46;76.07;;;38.53;;
22603;SDS011;11469;49.024;8.246;2024-02-28T09:18:12;74.90;;;37.63;;
22603;SDS011;11469;49.024;8.246;2024-02-28T09:20:37;73.38;;;37.85;;
22603;SDS011;11469;49.024;8.246;2024-02-28T09:23:02;78.47;;;38.28;;
22603;SDS011;11469;49.024;8.246;2024-02-28T09:25:28;73.97;;;38.67;;
22603;SDS011;11469;49.024;8.246;2024-02-28T09:27:53;76.43;;;37.50;;
22603;SDS011;11469;49.024;8.246;2024-02-28T09:30:19;78.63;;;36.63;;
22603;SDS011;11469;49.024;8.246;2024-02-28T09:32:44;74.63;;;37.38;;
22603;SDS011;11469;49.024;8.246;2024-02-28T09:35:09;76.95;;;40.05;;
22603;SDS011;11469;49.024;8.246;2024-02-28T09:37:36;68.28;;;35.15;;
22603;SDS011;11469;49.024;8.246;2024-02-28T09:40:02;64.05;;;36.13;;
22603;SDS011;11469;49.024;8.246;2024-02-28T09:42:28;66.75;;;37.00;;
22603;SDS011;11469;49.024;8.246;2024-02-28T09:44:53;76.63;;;37.30;;
22603;SDS011;11469;49.024;8.246;2024-02-28T09:47:19;59.03;;;32.25;;
22603;SDS011;11469;49.024;8.246;2024-02-28T09:49:45;64.15;;;34.35;;
22603;SDS011;11469;49.024;8.246;2024-02-28T09:52:13;66.88;;;34.03;;
22603;SDS011;11469;49.024;8.246;2024-02-28T09:54:40;64.57;;;34.35;;
22603;SDS011;11469;49.024;8.246;2024-02-28T09:57:09;62.92;;;33.63;;
22603;SDS011;11469;49.024;8.246;2024-02-28T09:59:36;59.72;;;32.75;;
22603;SDS011;11469;49.024;8.246;2024-02-28T10:02:04;60.90;;;32.60;;
22603;SDS011;11469;49.024;8.246;2024-02-28T10:04:31;57.65;;;31.60;;
22603;SDS011;11469;49.024;8.246;2024-02-28T10:06:59;65.30;;;32.58;;
22603;SDS011;11469;49.024;8.246;2024-02-28T10:09:35;61.85;;;32.58;;
22603;SDS011;11469;49.024;8.246;2024-02-28T10:12:02;63.40;;;32.88;;
22603;SDS011;11469;49.024;8.246;2024-02-28T10:14:28;58.95;;;30.63;;
22603;SDS011;11469;49.024;8.246;2024-02-28T10:16:54;53.95;;;28.45;;
22603;SDS011;11469;49.024;8.246;2024-02-28T10:19:20;55.33;;;29.73;;
22603;SDS011;11469;49.024;8.246;2024-02-28T10:21:46;62.53;;;31.85;;
22603;SDS011;11469;49.024;8.246;2024-02-28T10:24:12;57.33;;;29.90;;
22603;SDS011;11469;49.024;8.246;2024-02-28T10:26:46;54.10;;;28.17;;
22603;SDS011;11469;49.024;8.246;2024-02-28T10:29:24;57.95;;;30.08;;
22603;SDS011;11469;49.024;8.246;2024-02-28T10:31:51;54.15;;;28.90;;
22603;SDS011;11469;49.024;8.246;2024-02-28T10:34:17;53.67;;;29.27;;
22603;SDS011;11469;49.024;8.246;2024-02-28T10:36:43;47.90;;;26.60;;
22603;SDS011;11469;49.024;8.246;2024-02-28T10:39:10;48.35;;;27.38;;
22603;SDS011;11469;49.024;8.246;2024-02-28T10:41:39;50.00;;;28.20;;
22603;SDS011;11469;49.024;8.246;2024-02-28T10:44:05;54.05;;;28.27;;
22603;SDS011;11469;49.024;8.246;2024-02-28T10:46:30;51.50;;;28.88;;
22603;SDS011;11469;49.024;8.246;2024-02-28T10:48:56;53.28;;;28.35;;
22603;SDS011;11469;49.024;8.246;2024-02-28T10:51:25;53.45;;;28.05;;
22603;SDS011;11469;49.024;8.246;2024-02-28T10:54:10;48.08;;;26.50;;
22603;SDS011;11469;49.024;8.246;2024-02-28T10:56:37;53.40;;;28.13;;
22603;SDS011;11469;49.024;8.246;2024-02-28T10:59:05;51.65;;;26.23;;
22603;SDS011;11469;49.024;8.246;2024-02-28T11:01:32;50.08;;;26.70;;
22603;SDS011;11469;49.024;8.246;2024-02-28T11:04:02;53.38;;;29.70;;
22603;SDS011;11469;49.024;8.246;2024-02-28T11:06:28;50.60;;;27.27;;
22603;SDS011;11469;49.024;8.246;2024-02-28T11:08:54;46.38;;;26.05;;
22603;SDS011;11469;49.024;8.246;2024-02-28T11:11:21;51.22;;;27.00;;
22603;SDS011;11469;49.024;8.246;2024-02-28T11:13:54;46.10;;;25.00;;
22603;SDS011;11469;49.024;8.246;2024-02-28T11:16:27;47.97;;;25.83;;
22603;SDS011;11469;49.024;8.246;2024-02-28T11:18:57;50.92;;;25.63;;
22603;SDS011;11469;49.024;8.246;2024-02-28T11:21:27;48.92;;;26.13;;
22603;SDS011;11469;49.024;8.246;2024-02-28T11:24:00;50.33;;;28.30;;
22603;SDS011;11469;49.024;8.246;2024-02-28T11:26:26;46.13;;;26.35;;
22603;SDS011;11469;49.024;8.246;2024-02-28T11:28:53;50.58;;;28.17;;
22603;SDS011;11469;49.024;8.246;2024-02-28T11:31:20;48.45;;;27.05;;
22603;SDS011;11469;49.024;8.246;2024-02-28T11:33:46;40.95;;;21.45;;
22603;SDS011;11469;49.024;8.246;2024-02-28T11:36:11;47.08;;;25.05;;
22603;SDS011;11469;49.024;8.246;2024-02-28T11:38:38;46.90;;;26.60;;
22603;SDS011;11469;49.024;8.246;2024-02-28T11:41:05;49.28;;;25.73;;
22603;SDS011;11469;49.024;8.246;2024-02-28T11:43:33;43.55;;;25.00;;
22603;SDS011;11469;49.024;8.246;2024-02-28T11:46:11;47.05;;;25.95;;
22603;SDS011;11469;49.024;8.246;2024-02-28T11:48:36;43.25;;;25.30;;
22603;SDS011;11469;49.024;8.246;2024-02-28T11:51:02;49.28;;;25.08;;
22603;SDS011;11469;49.024;8.246;2024-02-28T11:53:27;47.30;;;25.38;;
22603;SDS011;11469;49.024;8.246;2024-02-28T11:55:53;45.70;;;25.15;;
22603;SDS011;11469;49.024;8.246;2024-02-28T11:58:21;43.33;;;23.42;;
22603;SDS011;11469;49.024;8.246;2024-02-28T12:00:47;44.28;;;22.08;;
22603;SDS011;11469;49.024;8.246;2024-02-28T12:03:14;39.50;;;22.83;;
22603;SDS011;11469;49.024;8.246;2024-02-28T12:05:42;41.85;;;21.73;;
22603;SDS011;11469;49.024;8.246;2024-02-28T12:08:08;41.53;;;22.75;;
22603;SDS011;11469;49.024;8.246;2024-02-28T12:10:34;40.08;;;21.27;;
22603;SDS011;11469;49.024;8.246;2024-02-28T12:13:00;35.83;;;21.35;;
22603;SDS011;11469;49.024;8.246;2024-02-28T12:15:28;41.90;;;22.20;;
22603;SDS011;11469;49.024;8.246;2024-02-28T12:17:54;40.10;;;21.55;;
22603;SDS011;11469;49.024;8.246;2024-02-28T12:20:19;38.83;;;22.08;;
22603;SDS011;11469;49.024;8.246;2024-02-28T12:22:45;42.22;;;22.02;;
22603;SDS011;11469;49.024;8.246;2024-02-28T12:25:11;34.35;;;20.67;;
22603;SDS011;11469;49.024;8.246;2024-02-28T12:27:36;39.55;;;22.92;;
22603;SDS011;11469;49.024;8.246;2024-02-28T12:30:02;41.85;;;20.75;;
22603;SDS011;11469;49.024;8.246;2024-02-28T12:32:27;38.97;;;20.88;;
22603;SDS011;11469;49.024;8.246;2024-02-28T12:34:53;35.83;;;21.27;;
22603;SDS011;11469;49.024;8.246;2024-02-28T12:37:19;38.53;;;21.63;;
22603;SDS011;11469;49.024;8.246;2024-02-28T12:39:44;40.72;;;21.27;;
22603;SDS011;11469;49.024;8.246;2024-02-28T12:42:11;42.38;;;21.23;;
22603;SDS011;11469;49.024;8.246;2024-02-28T12:44:38;32.83;;;20.33;;
22603;SDS011;11469;49.024;8.246;2024-02-28T12:47:05;32.85;;;17.35;;
22603;SDS011;11469;49.024;8.246;2024-02-28T12:49:31;35.72;;;19.75;;
22603;SDS011;11469;49.024;8.246;2024-02-28T12:51:56;30.77;;;18.38;;
22603;SDS011;11469;49.024;8.246;2024-02-28T12:54:22;27.95;;;16.42;;
22603;SDS011;11469;49.024;8.246;2024-02-28T12:56:47;33.25;;;17.27;;
22603;SDS011;11469;49.024;8.246;2024-02-28T12:59:13;33.58;;;18.85;;
22603;SDS011;11469;49.024;8.246;2024-02-28T13:01:38;29.50;;;17.63;;
22603;SDS011;11469;49.024;8.246;2024-02-28T13:04:04;28.08;;;16.50;;
22603;SDS011;11469;49.024;8.246;2024-02-28T13:06:29;32.45;;;18.38;;
22603;SDS011;11469;49.024;8.246;2024-02-28T13:08:55;31.75;;;16.63;;
22603;SDS011;11469;49.024;8.246;2024-02-28T13:11:21;30.15;;;17.52;;
22603;SDS011;11469;49.024;8.246;2024-02-28T13:13:48;30.70;;;18.15;;
22603;SDS011;11469;49.024;8.246;2024-02-28T13:16:14;30.63;;;18.77;;
22603;SDS011;11469;49.024;8.246;2024-02-28T13:18:41;27.73;;;16.67;;
22603;SDS011;11469;49.024;8.246;2024-02-28T13:21:07;27.85;;;16.73;;
22603;SDS011;11469;49.024;8.246;2024-02-28T13:23:33;31.80;;;18.27;;
22603;SDS011;11469;49.024;8.246;2024-02-28T13:25:59;29.92;;;17.90;;
22603;SDS011;11469;49.024;8.246;2024-02-28T13:28:26;28.90;;;17.55;;
22603;SDS011;11469;49.024;8.246;2024-02-28T13:30:56;30.17;;;16.85;;
22603;SDS011;11469;49.024;8.246;2024-02-28T13:33:25;31.30;;;17.05;;
22603;SDS011;11469;49.024;8.246;2024-02-28T13:35:51;28.45;;;16.42;;
22603;SDS011;11469;49.024;8.246;2024-02-28T13:38:18;24.08;;;14.93;;
22603;SDS011;11469;49.024;8.246;2024-02-28T13:40:44;23.20;;;15.10;;
22603;SDS011;11469;49.024;8.246;2024-02-28T13:43:10;26.35;;;14.70;;
22603;SDS011;11469;49.024;8.246;2024-02-28T13:45:39;28.05;;;14.73;;
22603;SDS011;11469;49.024;8.246;2024-02-28T13:48:20;24.10;;;14.73;;
22603;SDS011;11469;49.024;8.246;2024-02-28T13:50:47;25.20;;;15.38;;
22603;SDS011;11469;49.024;8.246;2024-02-28T13:53:16;28.83;;;16.45;;
22603;SDS011;11469;49.024;8.246;2024-02-28T13:55:42;29.10;;;17.40;;
22603;SDS011;11469;49.024;8.246;2024-02-28T13:58:10;26.90;;;17.45;;
22603;SDS011;11469;49.024;8.246;2024-02-28T14:00:36;27.98;;;16.85;;
22603;SDS011;11469;49.024;8.246;2024-02-28T14:03:02;27.88;;;16.95;;
22603;SDS011;11469;49.024;8.246;2024-02-28T14:05:28;27.77;;;16.92;;
22603;SDS011;11469;49.024;8.246;2024-02-28T14:07:54;27.52;;;16.65;;
22603;SDS011;11469;49.024;8.246;2024-02-28T14:10:20;26.83;;;16.50;;
22603;SDS011;11469;49.024;8.246;2024-02-28T14:12:47;28.17;;;16.42;;
22603;SDS011;11469;49.024;8.246;2024-02-28T14:15:13;23.88;;;15.73;;